sensor_id;sensor_type;location;lat;lon;timestamp;P1;durP1;ratioP1;P2;durP2;ratioP2
13708;SDS011;54933;51.908;7.730;2024-01-30T00:00:02;2.23;;;1.27;;
13708;SDS011;54933;51.908;7.730;2024-01-30T00:02:28;1.43;;;1.20;;
13708;SDS011;54933;51.908;7.730;2024-01-30T00:04:53;1.30;;;1.20;;
13708;SDS011;54933;51.908;7.730;2024-01-30T00:07:18;1.57;;;1.23;;
13708;SDS011;54933;51.908;7.730;2024-01-30T00:09:46;1.07;;;1.07;;
13708;SDS011;54933;51.908;7.730;2024-01-30T00:12:12;1.00;;;1.00;;
13708;SDS011;54933;51.908;7.730;2024-01-30T00:14:37;1.20;;;1.10;;
13708;SDS011;54933;51.908;7.730;2024-01-30T00:17:02;1.10;;;1.10;;
13708;SDS011;54933;51.908;7.730;2024-01-30T00:19:31;1.13;;;1.03;;
13708;SDS011;54933;51.908;7.730;2024-01-30T00:21:57;1.17;;;1.17;;
13708;SDS011;54933;51.908;7.730;2024-01-30T00:24:22;2.10;;;1.17;;
13708;SDS011;54933;51.908;7.730;2024-01-30T00:26:47;1.00;;;1.00;;
13708;SDS011;54933;51.908;7.730;2024-01-30T00:29:12;1.17;;;1.00;;
13708;SDS011;54933;51.908;7.730;2024-01-30T00:31:44;1.50;;;1.40;;
13708;SDS011;54933;51.908;7.730;2024-01-30T00:34:09;1.20;;;1.10;;
13708;SDS011;54933;51.908;7.730;2024-01-30T00:36:34;1.10;;;1.00;;
13708;SDS011;54933;51.908;7.730;2024-01-30T00:38:59;1.97;;;1.47;;
13708;SDS011;54933;51.908;7.730;2024-01-30T00:41:25;1.30;;;1.10;;
13708;SDS011;54933;51.908;7.730;2024-01-30T00:43:50;1.33;;;1.23;;
13708;SDS011;54933;51.908;7.730;2024-01-30T00:46:15;1.50;;;1.40;;
13708;SDS011;54933;51.908;7.730;2024-01-30T00:48:40;0.90;;;0.90;;
13708;SDS011;54933;51.908;7.730;2024-01-30T00:51:06;1.80;;;1.60;;
13708;SDS011;54933;51.908;7.730;2024-01-30T00:53:31;1.50;;;1.40;;
13708;SDS011;54933;51.908;7.730;2024-01-30T00:55:56;1.53;;;1.10;;
13708;SDS011;54933;51.908;7.730;2024-01-30T00:58:22;1.20;;;1.17;;
13708;SDS011;54933;51.908;7.730;2024-01-30T01:00:47;2.30;;;1.20;;
13708;SDS011;54933;51.908;7.730;2024-01-30T01:03:12;1.40;;;1.20;;
13708;SDS011;54933;51.908;7.730;2024-01-30T01:05:38;1.50;;;1.40;;
13708;SDS011;54933;51.908;7.730;2024-01-30T01:08:04;1.07;;;1.07;;
13708;SDS011;54933;51.908;7.730;2024-01-30T01:10:29;1.10;;;1.00;;
13708;SDS011;54933;51.908;7.730;2024-01-30T01:12:54;0.87;;;0.87;;
13708;SDS011;54933;51.908;7.730;2024-01-30T01:15:20;1.10;;;1.10;;
13708;SDS011;54933;51.908;7.730;2024-01-30T01:17:45;1.37;;;1.27;;
13708;SDS011;54933;51.908;7.730;2024-01-30T01:20:11;1.33;;;1.10;;
13708;SDS011;54933;51.908;7.730;2024-01-30T01:22:37;1.10;;;1.10;;
13708;SDS011;54933;51.908;7.730;2024-01-30T01:25:03;2.03;;;1.13;;
13708;SDS011;54933;51.908;7.730;2024-01-30T01:27:32;1.10;;;1.10;;
13708;SDS011;54933;51.908;7.730;2024-01-30T01:29:58;1.20;;;1.10;;
13708;SDS011;54933;51.908;7.730;2024-01-30T01:32:23;1.30;;;1.20;;
13708;SDS011;54933;51.908;7.730;2024-01-30T01:34:48;0.97;;;0.97;;
13708;SDS011;54933;51.908;7.730;2024-01-30T01:37:13;1.77;;;1.40;;
13708;SDS011;54933;51.908;7.730;2024-01-30T01:39:39;1.13;;;1.13;;
13708;SDS011;54933;51.908;7.730;2024-01-30T01:42:04;1.10;;;1.10;;
13708;SDS011;54933;51.908;7.730;2024-01-30T01:44:29;2.43;;;1.10;;
13708;SDS011;54933;51.908;7.730;2024-01-30T01:46:55;1.00;;;1.00;;
13708;SDS011;54933;51.908;7.730;2024-01-30T01:49:22;1.20;;;1.10;;
13708;SDS011;54933;51.908;7.730;2024-01-30T01:51:50;1.53;;;1.43;;
13708;SDS011;54933;51.908;7.730;2024-01-30T01:54:18;1.10;;;1.10;;
13708;SDS011;54933;51.908;7.730;2024-01-30T01:56:44;1.17;;;1.17;;
13708;SDS011;54933;51.908;7.730;2024-01-30T01:59:09;1.30;;;1.20;;
13708;SDS011;54933;51.908;7.730;2024-01-30T02:01:38;0.93;;;0.93;;
13708;SDS011;54933;51.908;7.730;2024-01-30T02:04:06;1.10;;;1.07;;
13708;SDS011;54933;51.908;7.730;2024-01-30T02:06:32;1.20;;;1.10;;
13708;SDS011;54933;51.908;7.730;2024-01-30T02:08:59;2.07;;;1.20;;
13708;SDS011;54933;51.908;7.730;2024-01-30T02:11:24;1.10;;;1.10;;
13708;SDS011;54933;51.908;7.730;2024-01-30T02:13:50;1.10;;;1.10;;
13708;SDS011;54933;51.908;7.730;2024-01-30T02:16:15;1.00;;;1.00;;
13708;SDS011;54933;51.908;7.730;2024-01-30T02:18:42;2.60;;;1.37;;
13708;SDS011;54933;51.908;7.730;2024-01-30T02:21:10;1.27;;;1.20;;
13708;SDS011;54933;51.908;7.730;2024-01-30T02:23:35;1.17;;;1.17;;
13708;SDS011;54933;51.908;7.730;2024-01-30T02:26:01;1.30;;;1.20;;
13708;SDS011;54933;51.908;7.730;2024-01-30T02:28:26;1.10;;;1.10;;
13708;SDS011;54933;51.908;7.730;2024-01-30T02:30:54;0.97;;;0.97;;
13708;SDS011;54933;51.908;7.730;2024-01-30T02:33:20;1.43;;;1.20;;
13708;SDS011;54933;51.908;7.730;2024-01-30T02:35:46;1.20;;;1.10;;
13708;SDS011;54933;51.908;7.730;2024-01-30T02:38:12;1.40;;;1.30;;
13708;SDS011;54933;51.908;7.730;2024-01-30T02:40:37;1.20;;;1.20;;
13708;SDS011;54933;51.908;7.730;2024-01-30T02:43:03;3.13;;;1.80;;
13708;SDS011;54933;51.908;7.730;2024-01-30T02:45:29;1.07;;;1.03;;
13708;SDS011;54933;51.908;7.730;2024-01-30T02:47:54;1.07;;;1.07;;
13708;SDS011;54933;51.908;7.730;2024-01-30T02:50:19;1.07;;;1.07;;
13708;SDS011;54933;51.908;7.730;2024-01-30T02:52:48;1.00;;;1.00;;
13708;SDS011;54933;51.908;7.730;2024-01-30T02:55:13;1.30;;;1.20;;
13708;SDS011;54933;51.908;7.730;2024-01-30T02:57:38;1.50;;;1.40;;
13708;SDS011;54933;51.908;7.730;2024-01-30T03:00:04;1.30;;;1.30;;
13708;SDS011;54933;51.908;7.730;2024-01-30T03:02:31;1.13;;;1.13;;
13708;SDS011;54933;51.908;7.730;2024-01-30T03:04:57;1.07;;;1.00;;
13708;SDS011;54933;51.908;7.730;2024-01-30T03:07:22;1.37;;;1.20;;
13708;SDS011;54933;51.908;7.730;2024-01-30T03:09:47;1.10;;;1.10;;
13708;SDS011;54933;51.908;7.730;2024-01-30T03:12:13;1.07;;;1.00;;
13708;SDS011;54933;51.908;7.730;2024-01-30T03:14:38;1.13;;;1.13;;
13708;SDS011;54933;51.908;7.730;2024-01-30T03:17:03;1.30;;;1.20;;
13708;SDS011;54933;51.908;7.730;2024-01-30T03:19:29;1.23;;;1.20;;
13708;SDS011;54933;51.908;7.730;2024-01-30T03:21:54;1.10;;;1.10;;
13708;SDS011;54933;51.908;7.730;2024-01-30T03:24:19;1.30;;;1.20;;
13708;SDS011;54933;51.908;7.730;2024-01-30T03:26:45;1.40;;;1.30;;
13708;SDS011;54933;51.908;7.730;2024-01-30T03:29:10;1.00;;;1.00;;
13708;SDS011;54933;51.908;7.730;2024-01-30T03:31:35;2.57;;;1.20;;
13708;SDS011;54933;51.908;7.730;2024-01-30T03:34:01;1.37;;;1.10;;
13708;SDS011;54933;51.908;7.730;2024-01-30T03:36:27;1.07;;;1.07;;
13708;SDS011;54933;51.908;7.730;2024-01-30T03:38:52;1.20;;;1.20;;
13708;SDS011;54933;51.908;7.730;2024-01-30T03:41:18;1.23;;;0.90;;
13708;SDS011;54933;51.908;7.730;2024-01-30T03:43:43;1.20;;;1.10;;
13708;SDS011;54933;51.908;7.730;2024-01-30T03:46:08;1.20;;;1.10;;
13708;SDS011;54933;51.908;7.730;2024-01-30T03:48:34;1.30;;;1.20;;
13708;SDS011;54933;51.908;7.730;2024-01-30T03:50:59;1.67;;;1.27;;
13708;SDS011;54933;51.908;7.730;2024-01-30T03:53:24;1.10;;;1.10;;
13708;SDS011;54933;51.908;7.730;2024-01-30T03:55:49;1.40;;;1.40;;
13708;SDS011;54933;51.908;7.730;2024-01-30T03:58:15;1.20;;;1.10;;
13708;SDS011;54933;51.908;7.730;2024-01-30T04:00:40;1.47;;;1.37;;
13708;SDS011;54933;51.908;7.730;2024-01-30T04:03:06;1.30;;;1.20;;
13708;SDS011;54933;51.908;7.730;2024-01-30T04:05:31;1.13;;;1.13;;
13708;SDS011;54933;51.908;7.730;2024-01-30T04:07:56;1.23;;;1.20;;
13708;SDS011;54933;51.908;7.730;2024-01-30T04:10:22;1.40;;;1.30;;
13708;SDS011;54933;51.908;7.730;2024-01-30T04:12:47;1.10;;;1.10;;
13708;SDS011;54933;51.908;7.730;2024-01-30T04:15:13;1.30;;;1.30;;
13708;SDS011;54933;51.908;7.730;2024-01-30T04:17:39;1.00;;;1.00;;
13708;SDS011;54933;51.908;7.730;2024-01-30T04:20:04;1.43;;;1.33;;
13708;SDS011;54933;51.908;7.730;2024-01-30T04:22:30;1.00;;;1.00;;
13708;SDS011;54933;51.908;7.730;2024-01-30T04:24:56;1.03;;;1.03;;
13708;SDS011;54933;51.908;7.730;2024-01-30T04:27:21;0.90;;;0.90;;
13708;SDS011;54933;51.908;7.730;2024-01-30T04:29:46;1.37;;;1.27;;
13708;SDS011;54933;51.908;7.730;2024-01-30T04:32:12;1.10;;;1.00;;
13708;SDS011;54933;51.908;7.730;2024-01-30T04:34:38;1.47;;;1.27;;
13708;SDS011;54933;51.908;7.730;2024-01-30T04:37:03;1.17;;;1.17;;
13708;SDS011;54933;51.908;7.730;2024-01-30T04:39:28;0.90;;;0.90;;
13708;SDS011;54933;51.908;7.730;2024-01-30T04:41:53;1.13;;;1.13;;
13708;SDS011;54933;51.908;7.730;2024-01-30T04:44:19;1.27;;;1.17;;
13708;SDS011;54933;51.908;7.730;2024-01-30T04:46:44;1.10;;;1.10;;
13708;SDS011;54933;51.908;7.730;2024-01-30T04:49:10;1.30;;;1.20;;
13708;SDS011;54933;51.908;7.730;2024-01-30T04:51:35;1.10;;;1.00;;
13708;SDS011;54933;51.908;7.730;2024-01-30T04:54:00;0.97;;;0.97;;
13708;SDS011;54933;51.908;7.730;2024-01-30T04:56:26;1.00;;;1.00;;
13708;SDS011;54933;51.908;7.730;2024-01-30T04:58:51;1.27;;;1.20;;
13708;SDS011;54933;51.908;7.730;2024-01-30T05:01:16;1.20;;;1.10;;
13708;SDS011;54933;51.908;7.730;2024-01-30T05:03:42;1.30;;;1.20;;
13708;SDS011;54933;51.908;7.730;2024-01-30T05:06:07;1.13;;;1.03;;
13708;SDS011;54933;51.908;7.730;2024-01-30T05:08:32;1.10;;;1.10;;
13708;SDS011;54933;51.908;7.730;2024-01-30T05:11:01;1.93;;;0.90;;
13708;SDS011;54933;51.908;7.730;2024-01-30T05:13:28;1.10;;;1.00;;
13708;SDS011;54933;51.908;7.730;2024-01-30T05:15:53;1.40;;;1.20;;
13708;SDS011;54933;51.908;7.730;2024-01-30T05:18:19;1.20;;;1.10;;
13708;SDS011;54933;51.908;7.730;2024-01-30T05:20:44;1.00;;;1.00;;
13708;SDS011;54933;51.908;7.730;2024-01-30T05:23:09;1.30;;;1.30;;
13708;SDS011;54933;51.908;7.730;2024-01-30T05:25:34;1.20;;;1.10;;
13708;SDS011;54933;51.908;7.730;2024-01-30T05:28:00;1.40;;;1.30;;
13708;SDS011;54933;51.908;7.730;2024-01-30T05:30:25;1.40;;;1.33;;
13708;SDS011;54933;51.908;7.730;2024-01-30T05:32:50;1.30;;;1.20;;
13708;SDS011;54933;51.908;7.730;2024-01-30T05:35:15;1.00;;;0.90;;
13708;SDS011;54933;51.908;7.730;2024-01-30T05:37:41;1.67;;;1.30;;
13708;SDS011;54933;51.908;7.730;2024-01-30T05:40:06;1.00;;;0.90;;
13708;SDS011;54933;51.908;7.730;2024-01-30T05:42:32;1.10;;;1.00;;
13708;SDS011;54933;51.908;7.730;2024-01-30T05:44:58;0.87;;;0.87;;
13708;SDS011;54933;51.908;7.730;2024-01-30T05:47:23;1.30;;;1.20;;
13708;SDS011;54933;51.908;7.730;2024-01-30T05:49:48;2.50;;;1.27;;
13708;SDS011;54933;51.908;7.730;2024-01-30T05:52:13;1.30;;;1.20;;
13708;SDS011;54933;51.908;7.730;2024-01-30T05:54:40;1.17;;;1.17;;
13708;SDS011;54933;51.908;7.730;2024-01-30T05:57:05;1.77;;;1.20;;
13708;SDS011;54933;51.908;7.730;2024-01-30T05:59:30;1.57;;;1.20;;
13708;SDS011;54933;51.908;7.730;2024-01-30T06:01:56;1.20;;;1.10;;
13708;SDS011;54933;51.908;7.730;2024-01-30T06:04:22;1.70;;;1.17;;
13708;SDS011;54933;51.908;7.730;2024-01-30T06:06:48;1.00;;;1.00;;
13708;SDS011;54933;51.908;7.730;2024-01-30T06:09:13;1.23;;;1.13;;
13708;SDS011;54933;51.908;7.730;2024-01-30T06:11:39;1.80;;;1.17;;
13708;SDS011;54933;51.908;7.730;2024-01-30T06:14:04;1.07;;;1.07;;
13708;SDS011;54933;51.908;7.730;2024-01-30T06:16:29;1.53;;;1.20;;
13708;SDS011;54933;51.908;7.730;2024-01-30T06:18:55;1.73;;;1.43;;
13708;SDS011;54933;51.908;7.730;2024-01-30T06:21:21;1.40;;;1.30;;
13708;SDS011;54933;51.908;7.730;2024-01-30T06:23:46;1.13;;;1.13;;
13708;SDS011;54933;51.908;7.730;2024-01-30T06:26:11;1.17;;;1.17;;
13708;SDS011;54933;51.908;7.730;2024-01-30T06:28:37;1.30;;;1.20;;
13708;SDS011;54933;51.908;7.730;2024-01-30T06:31:02;1.23;;;1.13;;
13708;SDS011;54933;51.908;7.730;2024-01-30T06:33:27;1.30;;;1.20;;
13708;SDS011;54933;51.908;7.730;2024-01-30T06:35:53;1.20;;;1.20;;
13708;SDS011;54933;51.908;7.730;2024-01-30T06:38:18;1.17;;;1.07;;
13708;SDS011;54933;51.908;7.730;2024-01-30T06:40:44;1.97;;;1.77;;
13708;SDS011;54933;51.908;7.730;2024-01-30T06:43:09;1.67;;;1.30;;
13708;SDS011;54933;51.908;7.730;2024-01-30T06:45:34;19.67;;;3.10;;
13708;SDS011;54933;51.908;7.730;2024-01-30T06:48:00;25.53;;;2.80;;
13708;SDS011;54933;51.908;7.730;2024-01-30T06:50:25;25.63;;;3.57;;
13708;SDS011;54933;51.908;7.730;2024-01-30T06:52:53;11.27;;;2.53;;
13708;SDS011;54933;51.908;7.730;2024-01-30T06:55:19;8.57;;;2.13;;
13708;SDS011;54933;51.908;7.730;2024-01-30T06:57:44;9.57;;;2.40;;
13708;SDS011;54933;51.908;7.730;2024-01-30T07:00:09;7.43;;;2.03;;
13708;SDS011;54933;51.908;7.730;2024-01-30T07:02:35;6.13;;;2.30;;
13708;SDS011;54933;51.908;7.730;2024-01-30T07:05:01;6.77;;;2.33;;
13708;SDS011;54933;51.908;7.730;2024-01-30T07:07:26;4.03;;;2.27;;
13708;SDS011;54933;51.908;7.730;2024-01-30T07:09:51;3.93;;;2.23;;
13708;SDS011;54933;51.908;7.730;2024-01-30T07:12:21;7.20;;;2.57;;
13708;SDS011;54933;51.908;7.730;2024-01-30T07:14:46;7.17;;;2.10;;
13708;SDS011;54933;51.908;7.730;2024-01-30T07:17:12;3.67;;;1.77;;
13708;SDS011;54933;51.908;7.730;2024-01-30T07:19:37;4.57;;;1.80;;
13708;SDS011;54933;51.908;7.730;2024-01-30T07:22:03;5.17;;;2.07;;
13708;SDS011;54933;51.908;7.730;2024-01-30T07:24:28;3.17;;;1.80;;
13708;SDS011;54933;51.908;7.730;2024-01-30T07:26:53;5.83;;;2.90;;
13708;SDS011;54933;51.908;7.730;2024-01-30T07:29:18;7.97;;;2.47;;
13708;SDS011;54933;51.908;7.730;2024-01-30T07:31:44;22.87;;;3.43;;
13708;SDS011;54933;51.908;7.730;2024-01-30T07:34:09;12.13;;;3.17;;
13708;SDS011;54933;51.908;7.730;2024-01-30T07:36:35;4.37;;;2.40;;
13708;SDS011;54933;51.908;7.730;2024-01-30T07:39:00;6.87;;;2.40;;
13708;SDS011;54933;51.908;7.730;2024-01-30T07:41:26;7.00;;;2.63;;
13708;SDS011;54933;51.908;7.730;2024-01-30T07:43:51;9.67;;;2.40;;
13708;SDS011;54933;51.908;7.730;2024-01-30T07:46:18;9.60;;;2.03;;
13708;SDS011;54933;51.908;7.730;2024-01-30T07:48:43;7.10;;;2.40;;
13708;SDS011;54933;51.908;7.730;2024-01-30T07:51:09;3.10;;;2.10;;
13708;SDS011;54933;51.908;7.730;2024-01-30T07:53:34;9.90;;;2.37;;
13708;SDS011;54933;51.908;7.730;2024-01-30T07:55:59;8.53;;;2.10;;
13708;SDS011;54933;51.908;7.730;2024-01-30T07:58:24;7.87;;;2.27;;
13708;SDS011;54933;51.908;7.730;2024-01-30T08:00:52;4.53;;;2.10;;
13708;SDS011;54933;51.908;7.730;2024-01-30T08:03:18;2.67;;;1.93;;
13708;SDS011;54933;51.908;7.730;2024-01-30T08:05:43;4.13;;;1.90;;
13708;SDS011;54933;51.908;7.730;2024-01-30T08:08:08;5.70;;;2.03;;
13708;SDS011;54933;51.908;7.730;2024-01-30T08:10:33;5.97;;;2.10;;
13708;SDS011;54933;51.908;7.730;2024-01-30T08:12:59;4.53;;;2.10;;
13708;SDS011;54933;51.908;7.730;2024-01-30T08:15:24;9.53;;;2.00;;
13708;SDS011;54933;51.908;7.730;2024-01-30T08:17:49;5.07;;;1.90;;
13708;SDS011;54933;51.908;7.730;2024-01-30T08:20:14;2.50;;;1.83;;
13708;SDS011;54933;51.908;7.730;2024-01-30T08:22:40;6.53;;;2.40;;
13708;SDS011;54933;51.908;7.730;2024-01-30T08:25:06;3.57;;;1.93;;
13708;SDS011;54933;51.908;7.730;2024-01-30T08:27:31;3.13;;;1.80;;
13708;SDS011;54933;51.908;7.730;2024-01-30T08:29:57;3.77;;;1.93;;
13708;SDS011;54933;51.908;7.730;2024-01-30T08:32:22;2.27;;;1.80;;
13708;SDS011;54933;51.908;7.730;2024-01-30T08:34:48;8.40;;;2.03;;
13708;SDS011;54933;51.908;7.730;2024-01-30T08:37:14;3.27;;;1.70;;
13708;SDS011;54933;51.908;7.730;2024-01-30T08:39:41;3.70;;;1.80;;
13708;SDS011;54933;51.908;7.730;2024-01-30T08:42:06;3.23;;;2.10;;
13708;SDS011;54933;51.908;7.730;2024-01-30T08:44:33;2.80;;;2.00;;
13708;SDS011;54933;51.908;7.730;2024-01-30T08:46:58;7.10;;;2.00;;
13708;SDS011;54933;51.908;7.730;2024-01-30T08:49:23;4.43;;;1.90;;
13708;SDS011;54933;51.908;7.730;2024-01-30T08:51:48;3.60;;;1.83;;
13708;SDS011;54933;51.908;7.730;2024-01-30T08:54:15;2.10;;;1.80;;
13708;SDS011;54933;51.908;7.730;2024-01-30T08:56:40;2.47;;;1.60;;
13708;SDS011;54933;51.908;7.730;2024-01-30T08:59:05;4.27;;;1.77;;
13708;SDS011;54933;51.908;7.730;2024-01-30T09:01:31;2.20;;;2.00;;
13708;SDS011;54933;51.908;7.730;2024-01-30T09:03:56;2.40;;;1.47;;
13708;SDS011;54933;51.908;7.730;2024-01-30T09:06:21;3.87;;;1.63;;
13708;SDS011;54933;51.908;7.730;2024-01-30T09:08:46;2.17;;;1.70;;
13708;SDS011;54933;51.908;7.730;2024-01-30T09:11:12;4.50;;;1.57;;
13708;SDS011;54933;51.908;7.730;2024-01-30T09:13:39;2.57;;;1.60;;
13708;SDS011;54933;51.908;7.730;2024-01-30T09:16:05;3.50;;;1.90;;
13708;SDS011;54933;51.908;7.730;2024-01-30T09:18:31;4.97;;;1.63;;
13708;SDS011;54933;51.908;7.730;2024-01-30T09:20:56;3.93;;;1.50;;
13708;SDS011;54933;51.908;7.730;2024-01-30T09:23:22;1.93;;;1.47;;
13708;SDS011;54933;51.908;7.730;2024-01-30T09:25:47;2.30;;;1.43;;
13708;SDS011;54933;51.908;7.730;2024-01-30T09:28:12;5.80;;;1.77;;
13708;SDS011;54933;51.908;7.730;2024-01-30T09:30:38;1.67;;;1.57;;
13708;SDS011;54933;51.908;7.730;2024-01-30T09:33:03;4.57;;;1.63;;
13708;SDS011;54933;51.908;7.730;2024-01-30T09:35:28;3.23;;;1.40;;
13708;SDS011;54933;51.908;7.730;2024-01-30T09:37:54;2.50;;;1.60;;
13708;SDS011;54933;51.908;7.730;2024-01-30T09:40:20;2.30;;;1.60;;
13708;SDS011;54933;51.908;7.730;2024-01-30T09:42:50;2.33;;;1.40;;
13708;SDS011;54933;51.908;7.730;2024-01-30T09:45:17;3.87;;;1.50;;
13708;SDS011;54933;51.908;7.730;2024-01-30T09:47:44;3.00;;;1.67;;
13708;SDS011;54933;51.908;7.730;2024-01-30T09:50:10;1.83;;;1.60;;
13708;SDS011;54933;51.908;7.730;2024-01-30T09:52:36;3.07;;;1.47;;
13708;SDS011;54933;51.908;7.730;2024-01-30T09:55:02;2.53;;;1.60;;
13708;SDS011;54933;51.908;7.730;2024-01-30T09:57:28;2.13;;;1.50;;
13708;SDS011;54933;51.908;7.730;2024-01-30T09:59:54;2.63;;;1.70;;
13708;SDS011;54933;51.908;7.730;2024-01-30T10:02:19;3.60;;;1.80;;
13708;SDS011;54933;51.908;7.730;2024-01-30T10:04:47;2.80;;;1.50;;
13708;SDS011;54933;51.908;7.730;2024-01-30T10:07:13;2.50;;;1.47;;
13708;SDS011;54933;51.908;7.730;2024-01-30T10:09:39;1.57;;;1.27;;
13708;SDS011;54933;51.908;7.730;2024-01-30T10:12:05;2.50;;;1.40;;
13708;SDS011;54933;51.908;7.730;2024-01-30T10:14:31;1.80;;;1.37;;
13708;SDS011;54933;51.908;7.730;2024-01-30T10:16:57;1.90;;;1.80;;
13708;SDS011;54933;51.908;7.730;2024-01-30T10:19:23;2.93;;;1.40;;
13708;SDS011;54933;51.908;7.730;2024-01-30T10:21:48;1.80;;;1.40;;
13708;SDS011;54933;51.908;7.730;2024-01-30T10:24:14;2.57;;;1.50;;
13708;SDS011;54933;51.908;7.730;2024-01-30T10:26:39;2.70;;;1.30;;
13708;SDS011;54933;51.908;7.730;2024-01-30T10:29:04;1.67;;;1.57;;
13708;SDS011;54933;51.908;7.730;2024-01-30T10:31:30;1.47;;;1.40;;
13708;SDS011;54933;51.908;7.730;2024-01-30T10:33:56;1.77;;;1.57;;
13708;SDS011;54933;51.908;7.730;2024-01-30T10:36:22;1.20;;;1.10;;
13708;SDS011;54933;51.908;7.730;2024-01-30T10:38:54;1.90;;;1.30;;
13708;SDS011;54933;51.908;7.730;2024-01-30T10:41:26;1.60;;;1.50;;
13708;SDS011;54933;51.908;7.730;2024-01-30T10:43:58;1.57;;;1.20;;
13708;SDS011;54933;51.908;7.730;2024-01-30T10:46:29;3.13;;;1.50;;
13708;SDS011;54933;51.908;7.730;2024-01-30T10:48:59;1.50;;;1.40;;
13708;SDS011;54933;51.908;7.730;2024-01-30T10:51:28;3.27;;;1.30;;
13708;SDS011;54933;51.908;7.730;2024-01-30T10:53:54;1.77;;;1.30;;
13708;SDS011;54933;51.908;7.730;2024-01-30T10:56:21;1.20;;;1.20;;
13708;SDS011;54933;51.908;7.730;2024-01-30T10:58:47;1.80;;;1.43;;
13708;SDS011;54933;51.908;7.730;2024-01-30T11:01:14;1.80;;;1.47;;
13708;SDS011;54933;51.908;7.730;2024-01-30T11:03:40;1.13;;;1.13;;
13708;SDS011;54933;51.908;7.730;2024-01-30T11:06:10;2.47;;;1.60;;
13708;SDS011;54933;51.908;7.730;2024-01-30T11:08:36;1.37;;;1.27;;
13708;SDS011;54933;51.908;7.730;2024-01-30T11:11:01;1.50;;;1.30;;
13708;SDS011;54933;51.908;7.730;2024-01-30T11:13:29;1.60;;;1.30;;
13708;SDS011;54933;51.908;7.730;2024-01-30T11:15:54;3.63;;;1.43;;
13708;SDS011;54933;51.908;7.730;2024-01-30T11:18:23;1.63;;;1.30;;
13708;SDS011;54933;51.908;7.730;2024-01-30T11:20:55;1.37;;;1.33;;
13708;SDS011;54933;51.908;7.730;2024-01-30T11:23:22;2.17;;;1.20;;
13708;SDS011;54933;51.908;7.730;2024-01-30T11:25:47;1.87;;;1.70;;
13708;SDS011;54933;51.908;7.730;2024-01-30T11:28:16;1.37;;;1.27;;
13708;SDS011;54933;51.908;7.730;2024-01-30T11:30:41;1.37;;;1.37;;
13708;SDS011;54933;51.908;7.730;2024-01-30T11:33:07;1.47;;;1.30;;
13708;SDS011;54933;51.908;7.730;2024-01-30T11:35:40;1.40;;;1.23;;
13708;SDS011;54933;51.908;7.730;2024-01-30T11:38:08;1.60;;;1.50;;
13708;SDS011;54933;51.908;7.730;2024-01-30T11:40:35;2.17;;;1.47;;
13708;SDS011;54933;51.908;7.730;2024-01-30T11:43:03;1.27;;;1.20;;
13708;SDS011;54933;51.908;7.730;2024-01-30T11:45:32;1.40;;;1.30;;
13708;SDS011;54933;51.908;7.730;2024-01-30T11:47:58;1.47;;;1.20;;
13708;SDS011;54933;51.908;7.730;2024-01-30T11:50:28;1.43;;;1.27;;
13708;SDS011;54933;51.908;7.730;2024-01-30T11:52:54;1.30;;;1.20;;
13708;SDS011;54933;51.908;7.730;2024-01-30T11:55:20;1.80;;;1.60;;
13708;SDS011;54933;51.908;7.730;2024-01-30T11:57:45;1.30;;;1.20;;
13708;SDS011;54933;51.908;7.730;2024-01-30T12:00:14;1.60;;;1.13;;
13708;SDS011;54933;51.908;7.730;2024-01-30T12:02:43;1.60;;;1.30;;
13708;SDS011;54933;51.908;7.730;2024-01-30T12:05:09;1.23;;;1.23;;
13708;SDS011;54933;51.908;7.730;2024-01-30T12:07:34;1.00;;;1.00;;
13708;SDS011;54933;51.908;7.730;2024-01-30T12:10:00;1.33;;;1.33;;
13708;SDS011;54933;51.908;7.730;2024-01-30T12:12:25;2.80;;;1.30;;
13708;SDS011;54933;51.908;7.730;2024-01-30T12:14:51;1.10;;;1.10;;
13708;SDS011;54933;51.908;7.730;2024-01-30T12:17:31;1.80;;;1.30;;
13708;SDS011;54933;51.908;7.730;2024-01-30T12:20:03;1.17;;;1.17;;
13708;SDS011;54933;51.908;7.730;2024-01-30T12:22:36;1.77;;;1.67;;
13708;SDS011;54933;51.908;7.730;2024-01-30T12:25:04;1.17;;;1.07;;
13708;SDS011;54933;51.908;7.730;2024-01-30T12:27:30;1.43;;;1.33;;
13708;SDS011;54933;51.908;7.730;2024-01-30T12:29:58;1.50;;;1.40;;
13708;SDS011;54933;51.908;7.730;2024-01-30T12:32:24;1.10;;;1.10;;
13708;SDS011;54933;51.908;7.730;2024-01-30T12:34:49;2.33;;;1.43;;
13708;SDS011;54933;51.908;7.730;2024-01-30T12:37:14;1.60;;;1.30;;
13708;SDS011;54933;51.908;7.730;2024-01-30T12:39:44;1.40;;;1.13;;
13708;SDS011;54933;51.908;7.730;2024-01-30T12:42:10;1.87;;;1.20;;
13708;SDS011;54933;51.908;7.730;2024-01-30T12:44:35;1.30;;;1.20;;
13708;SDS011;54933;51.908;7.730;2024-01-30T12:47:02;1.67;;;1.20;;
13708;SDS011;54933;51.908;7.730;2024-01-30T12:49:28;1.20;;;1.10;;
13708;SDS011;54933;51.908;7.730;2024-01-30T12:51:54;1.43;;;1.33;;
13708;SDS011;54933;51.908;7.730;2024-01-30T12:54:19;1.37;;;1.27;;
13708;SDS011;54933;51.908;7.730;2024-01-30T12:56:44;1.73;;;1.20;;
13708;SDS011;54933;51.908;7.730;2024-01-30T12:59:09;1.70;;;1.23;;
13708;SDS011;54933;51.908;7.730;2024-01-30T13:01:35;1.73;;;1.33;;
13708;SDS011;54933;51.908;7.730;2024-01-30T13:04:00;1.10;;;1.10;;
13708;SDS011;54933;51.908;7.730;2024-01-30T13:06:25;1.30;;;1.27;;
13708;SDS011;54933;51.908;7.730;2024-01-30T13:08:51;1.70;;;1.27;;
13708;SDS011;54933;51.908;7.730;2024-01-30T13:11:16;1.13;;;1.13;;
13708;SDS011;54933;51.908;7.730;2024-01-30T13:13:42;1.60;;;1.13;;
13708;SDS011;54933;51.908;7.730;2024-01-30T13:16:07;1.10;;;1.10;;
13708;SDS011;54933;51.908;7.730;2024-01-30T13:18:32;1.37;;;1.20;;
13708;SDS011;54933;51.908;7.730;2024-01-30T13:20:58;1.37;;;1.27;;
13708;SDS011;54933;51.908;7.730;2024-01-30T13:23:23;2.27;;;1.17;;
13708;SDS011;54933;51.908;7.730;2024-01-30T13:25:48;1.00;;;1.00;;
13708;SDS011;54933;51.908;7.730;2024-01-30T13:28:14;1.20;;;1.20;;
13708;SDS011;54933;51.908;7.730;2024-01-30T13:30:39;1.17;;;1.17;;
13708;SDS011;54933;51.908;7.730;2024-01-30T13:33:04;1.07;;;1.07;;
13708;SDS011;54933;51.908;7.730;2024-01-30T13:35:29;1.20;;;1.10;;
13708;SDS011;54933;51.908;7.730;2024-01-30T13:37:55;0.97;;;0.97;;
13708;SDS011;54933;51.908;7.730;2024-01-30T13:40:20;1.20;;;1.20;;
13708;SDS011;54933;51.908;7.730;2024-01-30T13:42:47;1.37;;;1.27;;
13708;SDS011;54933;51.908;7.730;2024-01-30T13:45:12;1.67;;;1.27;;
13708;SDS011;54933;51.908;7.730;2024-01-30T13:47:38;1.00;;;1.00;;
13708;SDS011;54933;51.908;7.730;2024-01-30T13:50:03;1.13;;;1.00;;
13708;SDS011;54933;51.908;7.730;2024-01-30T13:52:29;1.03;;;1.03;;
13708;SDS011;54933;51.908;7.730;2024-01-30T13:54:54;1.30;;;1.20;;
13708;SDS011;54933;51.908;7.730;2024-01-30T13:57:20;1.10;;;1.10;;
13708;SDS011;54933;51.908;7.730;2024-01-30T13:59:45;1.50;;;1.40;;
13708;SDS011;54933;51.908;7.730;2024-01-30T14:02:11;1.53;;;0.93;;
13708;SDS011;54933;51.908;7.730;2024-01-30T14:04:36;1.30;;;1.20;;
13708;SDS011;54933;51.908;7.730;2024-01-30T14:07:02;1.20;;;1.10;;
13708;SDS011;54933;51.908;7.730;2024-01-30T14:09:28;3.30;;;1.10;;
13708;SDS011;54933;51.908;7.730;2024-01-30T14:11:53;1.30;;;1.20;;
13708;SDS011;54933;51.908;7.730;2024-01-30T14:14:19;1.60;;;1.17;;
13708;SDS011;54933;51.908;7.730;2024-01-30T14:16:44;1.10;;;1.10;;
13708;SDS011;54933;51.908;7.730;2024-01-30T14:19:09;1.20;;;1.10;;
13708;SDS011;54933;51.908;7.730;2024-01-30T14:21:35;1.13;;;1.10;;
13708;SDS011;54933;51.908;7.730;2024-01-30T14:24:02;1.37;;;1.27;;
13708;SDS011;54933;51.908;7.730;2024-01-30T14:26:27;1.43;;;1.30;;
13708;SDS011;54933;51.908;7.730;2024-01-30T14:28:53;1.10;;;1.00;;
13708;SDS011;54933;51.908;7.730;2024-01-30T14:31:20;1.30;;;1.20;;
13708;SDS011;54933;51.908;7.730;2024-01-30T14:33:46;1.30;;;1.20;;
13708;SDS011;54933;51.908;7.730;2024-01-30T14:36:11;1.27;;;1.27;;
13708;SDS011;54933;51.908;7.730;2024-01-30T14:38:37;1.53;;;1.23;;